sensor_id;sensor_type;location;lat;lon;timestamp;P1;durP1;ratioP1;P2;durP2;ratioP2
74632;SDS011;63139;52.018;8.552;2022-12-20T00:01:51;8.10;;;4.55;;
74632;SDS011;63139;52.018;8.552;2022-12-20T00:04:19;6.45;;;4.28;;
74632;SDS011;63139;52.018;8.552;2022-12-20T00:06:46;7.55;;;4.05;;
74632;SDS011;63139;52.018;8.552;2022-12-20T00:09:14;5.72;;;4.22;;
74632;SDS011;63139;52.018;8.552;2022-12-20T00:11:41;6.70;;;4.25;;
74632;SDS011;63139;52.018;8.552;2022-12-20T00:14:09;6.88;;;4.05;;
74632;SDS011;63139;52.018;8.552;2022-12-20T00:16:39;6.22;;;4.43;;
74632;SDS011;63139;52.018;8.552;2022-12-20T00:19:06;6.57;;;3.63;;
74632;SDS011;63139;52.018;8.552;2022-12-20T00:21:36;4.63;;;3.33;;
74632;SDS011;63139;52.018;8.552;2022-12-20T00:24:04;5.88;;;3.85;;
74632;SDS011;63139;52.018;8.552;2022-12-20T00:26:33;6.10;;;3.80;;
74632;SDS011;63139;52.018;8.552;2022-12-20T00:29:02;5.93;;;4.30;;
74632;SDS011;63139;52.018;8.552;2022-12-20T00:31:30;5.45;;;3.83;;
74632;SDS011;63139;52.018;8.552;2022-12-20T00:34:00;6.15;;;3.55;;
74632;SDS011;63139;52.018;8.552;2022-12-20T00:36:29;6.15;;;3.85;;
74632;SDS011;63139;52.018;8.552;2022-12-20T00:38:58;5.20;;;3.90;;
74632;SDS011;63139;52.018;8.552;2022-12-20T00:41:28;5.55;;;3.90;;
74632;SDS011;63139;52.018;8.552;2022-12-20T00:43:57;5.55;;;4.05;;
74632;SDS011;63139;52.018;8.552;2022-12-20T00:46:25;6.10;;;3.47;;
74632;SDS011;63139;52.018;8.552;2022-12-20T00:48:54;5.85;;;3.33;;
74632;SDS011;63139;52.018;8.552;2022-12-20T00:51:25;5.38;;;3.75;;
74632;SDS011;63139;52.018;8.552;2022-12-20T00:53:54;6.22;;;3.80;;
74632;SDS011;63139;52.018;8.552;2022-12-20T00:56:21;4.65;;;3.80;;
74632;SDS011;63139;52.018;8.552;2022-12-20T00:58:53;4.95;;;3.33;;
74632;SDS011;63139;52.018;8.552;2022-12-20T01:01:25;5.20;;;3.28;;
74632;SDS011;63139;52.018;8.552;2022-12-20T01:03:55;5.18;;;3.67;;
74632;SDS011;63139;52.018;8.552;2022-12-20T01:06:25;6.00;;;3.70;;
74632;SDS011;63139;52.018;8.552;2022-12-20T01:08:53;5.32;;;3.30;;
74632;SDS011;63139;52.018;8.552;2022-12-20T01:11:23;4.43;;;3.40;;
74632;SDS011;63139;52.018;8.552;2022-12-20T01:13:52;6.50;;;3.35;;
74632;SDS011;63139;52.018;8.552;2022-12-20T01:16:22;6.88;;;3.40;;
74632;SDS011;63139;52.018;8.552;2022-12-20T01:18:52;4.57;;;3.25;;
74632;SDS011;63139;52.018;8.552;2022-12-20T01:21:21;4.90;;;3.60;;
74632;SDS011;63139;52.018;8.552;2022-12-20T01:23:53;4.47;;;2.97;;
74632;SDS011;63139;52.018;8.552;2022-12-20T01:26:21;5.30;;;3.38;;
74632;SDS011;63139;52.018;8.552;2022-12-20T01:28:52;4.72;;;2.95;;
74632;SDS011;63139;52.018;8.552;2022-12-20T01:31:22;4.78;;;3.30;;
74632;SDS011;63139;52.018;8.552;2022-12-20T01:33:50;4.25;;;2.92;;
74632;SDS011;63139;52.018;8.552;2022-12-20T01:36:19;4.88;;;3.10;;
74632;SDS011;63139;52.018;8.552;2022-12-20T01:38:50;4.40;;;3.22;;
74632;SDS011;63139;52.018;8.552;2022-12-20T01:41:24;3.88;;;3.10;;
74632;SDS011;63139;52.018;8.552;2022-12-20T01:43:54;5.03;;;3.08;;
74632;SDS011;63139;52.018;8.552;2022-12-20T01:46:23;6.85;;;3.33;;
74632;SDS011;63139;52.018;8.552;2022-12-20T01:48:53;4.95;;;3.38;;
74632;SDS011;63139;52.018;8.552;2022-12-20T01:51:24;6.75;;;3.53;;
74632;SDS011;63139;52.018;8.552;2022-12-20T01:53:57;3.30;;;2.65;;
74632;SDS011;63139;52.018;8.552;2022-12-20T01:56:30;5.70;;;2.97;;
74632;SDS011;63139;52.018;8.552;2022-12-20T01:58:58;3.97;;;2.80;;
74632;SDS011;63139;52.018;8.552;2022-12-20T02:17:58;3.60;;;2.72;;
74632;SDS011;63139;52.018;8.552;2022-12-20T02:20:43;3.97;;;2.63;;
74632;SDS011;63139;52.018;8.552;2022-12-20T02:26:49;5.45;;;2.80;;
74632;SDS011;63139;52.018;8.552;2022-12-20T02:29:34;4.03;;;2.53;;
74632;SDS011;63139;52.018;8.552;2022-12-20T02:32:07;3.50;;;2.92;;
74632;SDS011;63139;52.018;8.552;2022-12-20T02:34:39;6.15;;;3.13;;
74632;SDS011;63139;52.018;8.552;2022-12-20T02:37:08;4.53;;;2.67;;
74632;SDS011;63139;52.018;8.552;2022-12-20T02:39:36;5.13;;;2.90;;
74632;SDS011;63139;52.018;8.552;2022-12-20T02:42:07;4.40;;;3.00;;
74632;SDS011;63139;52.018;8.552;2022-12-20T02:44:37;4.60;;;2.60;;
74632;SDS011;63139;52.018;8.552;2022-12-20T02:47:28;3.47;;;2.50;;
74632;SDS011;63139;52.018;8.552;2022-12-20T02:50:00;5.28;;;2.70;;
74632;SDS011;63139;52.018;8.552;2022-12-20T02:52:29;4.38;;;2.65;;
74632;SDS011;63139;52.018;8.552;2022-12-20T02:54:58;4.28;;;3.08;;
74632;SDS011;63139;52.018;8.552;2022-12-20T02:57:31;5.03;;;2.90;;
74632;SDS011;63139;52.018;8.552;2022-12-20T03:00:05;3.67;;;2.25;;
74632;SDS011;63139;52.018;8.552;2022-12-20T03:02:38;4.07;;;2.22;;
74632;SDS011;63139;52.018;8.552;2022-12-20T03:05:25;3.22;;;2.60;;
74632;SDS011;63139;52.018;8.552;2022-12-20T03:07:54;4.55;;;2.63;;
74632;SDS011;63139;52.018;8.552;2022-12-20T03:10:23;5.10;;;2.50;;
74632;SDS011;63139;52.018;8.552;2022-12-20T03:12:51;4.40;;;2.50;;
74632;SDS011;63139;52.018;8.552;2022-12-20T03:15:19;5.45;;;3.13;;
74632;SDS011;63139;52.018;8.552;2022-12-20T03:17:52;4.57;;;2.50;;
74632;SDS011;63139;52.018;8.552;2022-12-20T03:20:20;4.47;;;2.60;;
74632;SDS011;63139;52.018;8.552;2022-12-20T03:22:48;3.35;;;2.35;;
74632;SDS011;63139;52.018;8.552;2022-12-20T03:25:16;5.47;;;2.83;;
74632;SDS011;63139;52.018;8.552;2022-12-20T03:27:44;2.75;;;2.47;;
74632;SDS011;63139;52.018;8.552;2022-12-20T03:30:13;3.97;;;2.63;;
74632;SDS011;63139;52.018;8.552;2022-12-20T03:32:41;4.10;;;2.35;;
74632;SDS011;63139;52.018;8.552;2022-12-20T03:35:11;5.03;;;2.65;;
74632;SDS011;63139;52.018;8.552;2022-12-20T03:37:39;3.25;;;2.22;;
74632;SDS011;63139;52.018;8.552;2022-12-20T03:40:09;4.90;;;2.28;;
74632;SDS011;63139;52.018;8.552;2022-12-20T03:42:37;2.67;;;2.10;;
74632;SDS011;63139;52.018;8.552;2022-12-20T03:45:06;3.65;;;2.28;;
74632;SDS011;63139;52.018;8.552;2022-12-20T03:47:34;3.92;;;2.47;;
74632;SDS011;63139;52.018;8.552;2022-12-20T03:50:02;5.25;;;2.33;;
74632;SDS011;63139;52.018;8.552;2022-12-20T03:52:34;3.45;;;2.40;;
74632;SDS011;63139;52.018;8.552;2022-12-20T03:55:03;3.00;;;2.40;;
74632;SDS011;63139;52.018;8.552;2022-12-20T03:57:38;3.80;;;2.40;;
74632;SDS011;63139;52.018;8.552;2022-12-20T04:00:20;3.97;;;2.53;;
74632;SDS011;63139;52.018;8.552;2022-12-20T04:02:51;3.55;;;2.40;;
74632;SDS011;63139;52.018;8.552;2022-12-20T04:05:20;3.47;;;2.58;;
74632;SDS011;63139;52.018;8.552;2022-12-20T04:07:50;2.80;;;2.50;;
74632;SDS011;63139;52.018;8.552;2022-12-20T04:10:18;5.22;;;2.67;;
74632;SDS011;63139;52.018;8.552;2022-12-20T04:12:46;3.08;;;2.42;;
74632;SDS011;63139;52.018;8.552;2022-12-20T04:15:15;5.55;;;2.90;;
74632;SDS011;63139;52.018;8.552;2022-12-20T04:17:44;4.82;;;2.90;;
74632;SDS011;63139;52.018;8.552;2022-12-20T04:20:12;4.72;;;3.03;;
74632;SDS011;63139;52.018;8.552;2022-12-20T04:23:00;3.03;;;2.70;;
74632;SDS011;63139;52.018;8.552;2022-12-20T04:25:28;3.78;;;2.30;;
74632;SDS011;63139;52.018;8.552;2022-12-20T04:27:56;3.67;;;2.55;;
74632;SDS011;63139;52.018;8.552;2022-12-20T04:30:23;6.70;;;2.90;;
74632;SDS011;63139;52.018;8.552;2022-12-20T04:32:51;4.20;;;2.58;;
74632;SDS011;63139;52.018;8.552;2022-12-20T04:35:20;6.00;;;3.08;;
74632;SDS011;63139;52.018;8.552;2022-12-20T04:37:48;3.40;;;2.55;;
74632;SDS011;63139;52.018;8.552;2022-12-20T04:40:17;3.00;;;2.70;;
74632;SDS011;63139;52.018;8.552;2022-12-20T04:42:49;3.58;;;2.70;;
74632;SDS011;63139;52.018;8.552;2022-12-20T04:45:17;4.32;;;2.97;;
74632;SDS011;63139;52.018;8.552;2022-12-20T04:47:46;5.18;;;2.80;;
74632;SDS011;63139;52.018;8.552;2022-12-20T04:50:19;5.43;;;2.97;;
74632;SDS011;63139;52.018;8.552;2022-12-20T04:52:46;4.05;;;3.20;;
74632;SDS011;63139;52.018;8.552;2022-12-20T04:55:36;5.50;;;3.00;;
74632;SDS011;63139;52.018;8.552;2022-12-20T04:58:05;4.72;;;3.15;;
74632;SDS011;63139;52.018;8.552;2022-12-20T05:00:36;4.07;;;2.85;;
74632;SDS011;63139;52.018;8.552;2022-12-20T05:03:15;5.78;;;3.00;;
74632;SDS011;63139;52.018;8.552;2022-12-20T05:05:43;5.18;;;2.65;;
74632;SDS011;63139;52.018;8.552;2022-12-20T05:08:11;5.18;;;3.17;;
74632;SDS011;63139;52.018;8.552;2022-12-20T05:10:41;4.78;;;2.85;;
74632;SDS011;63139;52.018;8.552;2022-12-20T05:13:09;6.22;;;3.20;;
74632;SDS011;63139;52.018;8.552;2022-12-20T05:15:40;4.38;;;3.00;;
74632;SDS011;63139;52.018;8.552;2022-12-20T05:18:09;6.35;;;2.95;;
74632;SDS011;63139;52.018;8.552;2022-12-20T05:20:48;4.80;;;3.50;;
74632;SDS011;63139;52.018;8.552;2022-12-20T05:23:36;6.90;;;3.40;;
74632;SDS011;63139;52.018;8.552;2022-12-20T05:26:25;4.88;;;3.60;;
74632;SDS011;63139;52.018;8.552;2022-12-20T05:28:56;5.60;;;3.33;;
74632;SDS011;63139;52.018;8.552;2022-12-20T05:31:25;5.65;;;3.47;;
74632;SDS011;63139;52.018;8.552;2022-12-20T05:33:53;4.63;;;3.72;;
74632;SDS011;63139;52.018;8.552;2022-12-20T05:36:24;8.43;;;4.18;;
74632;SDS011;63139;52.018;8.552;2022-12-20T05:38:54;5.85;;;3.90;;
74632;SDS011;63139;52.018;8.552;2022-12-20T05:41:32;4.85;;;3.60;;
74632;SDS011;63139;52.018;8.552;2022-12-20T05:44:01;6.05;;;3.40;;
74632;SDS011;63139;52.018;8.552;2022-12-20T05:46:31;4.90;;;3.50;;
74632;SDS011;63139;52.018;8.552;2022-12-20T05:49:03;5.35;;;3.30;;
74632;SDS011;63139;52.018;8.552;2022-12-20T05:51:31;6.53;;;4.13;;
74632;SDS011;63139;52.018;8.552;2022-12-20T05:54:07;5.88;;;3.47;;
74632;SDS011;63139;52.018;8.552;2022-12-20T05:56:47;5.45;;;3.85;;
74632;SDS011;63139;52.018;8.552;2022-12-20T05:59:19;7.70;;;4.63;;
74632;SDS011;63139;52.018;8.552;2022-12-20T06:01:47;8.38;;;4.03;;
74632;SDS011;63139;52.018;8.552;2022-12-20T06:04:15;7.35;;;4.60;;
74632;SDS011;63139;52.018;8.552;2022-12-20T06:06:45;8.80;;;4.40;;
74632;SDS011;63139;52.018;8.552;2022-12-20T06:09:16;6.65;;;4.30;;
74632;SDS011;63139;52.018;8.552;2022-12-20T06:11:53;6.85;;;4.30;;
74632;SDS011;63139;52.018;8.552;2022-12-20T06:14:21;7.43;;;4.53;;
74632;SDS011;63139;52.018;8.552;2022-12-20T06:16:50;9.10;;;4.95;;
74632;SDS011;63139;52.018;8.552;2022-12-20T06:19:19;7.03;;;4.43;;
74632;SDS011;63139;52.018;8.552;2022-12-20T06:21:50;9.13;;;5.50;;
74632;SDS011;63139;52.018;8.552;2022-12-20T06:24:24;6.65;;;4.63;;
74632;SDS011;63139;52.018;8.552;2022-12-20T06:26:54;6.80;;;3.97;;
74632;SDS011;63139;52.018;8.552;2022-12-20T06:29:24;7.80;;;4.43;;
74632;SDS011;63139;52.018;8.552;2022-12-20T06:32:02;7.10;;;4.20;;
74632;SDS011;63139;52.018;8.552;2022-12-20T06:34:31;7.60;;;4.95;;
74632;SDS011;63139;52.018;8.552;2022-12-20T06:37:00;7.88;;;4.70;;
74632;SDS011;63139;52.018;8.552;2022-12-20T06:39:31;7.72;;;4.55;;
74632;SDS011;63139;52.018;8.552;2022-12-20T06:42:04;7.35;;;4.25;;
74632;SDS011;63139;52.018;8.552;2022-12-20T06:44:34;6.65;;;4.05;;
74632;SDS011;63139;52.018;8.552;2022-12-20T06:47:02;7.15;;;4.85;;
74632;SDS011;63139;52.018;8.552;2022-12-20T06:49:29;5.13;;;4.15;;
74632;SDS011;63139;52.018;8.552;2022-12-20T06:51:57;7.05;;;4.85;;
74632;SDS011;63139;52.018;8.552;2022-12-20T06:54:44;6.95;;;4.38;;
74632;SDS011;63139;52.018;8.552;2022-12-20T06:57:13;7.40;;;4.68;;
74632;SDS011;63139;52.018;8.552;2022-12-20T06:59:44;8.68;;;4.93;;
74632;SDS011;63139;52.018;8.552;2022-12-20T07:02:12;6.10;;;4.97;;
74632;SDS011;63139;52.018;8.552;2022-12-20T07:04:40;10.25;;;5.50;;
74632;SDS011;63139;52.018;8.552;2022-12-20T07:07:08;7.85;;;4.60;;
74632;SDS011;63139;52.018;8.552;2022-12-20T07:09:35;7.63;;;4.70;;
74632;SDS011;63139;52.018;8.552;2022-12-20T07:12:06;7.40;;;4.65;;
74632;SDS011;63139;52.018;8.552;2022-12-20T07:14:36;7.90;;;5.20;;
74632;SDS011;63139;52.018;8.552;2022-12-20T07:17:04;10.27;;;5.88;;
74632;SDS011;63139;52.018;8.552;2022-12-20T07:19:32;7.78;;;5.18;;
74632;SDS011;63139;52.018;8.552;2022-12-20T07:22:02;6.97;;;4.97;;
74632;SDS011;63139;52.018;8.552;2022-12-20T07:24:30;10.32;;;6.00;;
74632;SDS011;63139;52.018;8.552;2022-12-20T07:26:58;13.63;;;7.05;;
74632;SDS011;63139;52.018;8.552;2022-12-20T07:29:26;9.70;;;6.22;;
74632;SDS011;63139;52.018;8.552;2022-12-20T07:31:56;9.90;;;6.25;;
74632;SDS011;63139;52.018;8.552;2022-12-20T07:34:23;8.75;;;6.07;;
74632;SDS011;63139;52.018;8.552;2022-12-20T07:36:51;9.82;;;6.72;;
74632;SDS011;63139;52.018;8.552;2022-12-20T07:39:19;13.18;;;7.43;;
74632;SDS011;63139;52.018;8.552;2022-12-20T07:41:47;8.98;;;6.03;;
74632;SDS011;63139;52.018;8.552;2022-12-20T07:44:15;9.30;;;6.20;;
74632;SDS011;63139;52.018;8.552;2022-12-20T07:46:43;8.57;;;6.63;;
74632;SDS011;63139;52.018;8.552;2022-12-20T07:49:12;7.57;;;5.28;;
74632;SDS011;63139;52.018;8.552;2022-12-20T07:51:41;9.43;;;5.63;;
74632;SDS011;63139;52.018;8.552;2022-12-20T07:54:12;8.82;;;5.63;;
74632;SDS011;63139;52.018;8.552;2022-12-20T07:56:45;10.57;;;5.80;;
74632;SDS011;63139;52.018;8.552;2022-12-20T07:59:17;8.43;;;5.32;;
74632;SDS011;63139;52.018;8.552;2022-12-20T08:01:50;8.32;;;5.85;;
74632;SDS011;63139;52.018;8.552;2022-12-20T08:04:23;10.38;;;5.68;;
74632;SDS011;63139;52.018;8.552;2022-12-20T08:06:53;10.75;;;6.55;;
74632;SDS011;63139;52.018;8.552;2022-12-20T08:09:24;8.88;;;5.70;;
74632;SDS011;63139;52.018;8.552;2022-12-20T08:11:55;10.82;;;6.22;;
74632;SDS011;63139;52.018;8.552;2022-12-20T08:14:25;9.63;;;5.97;;
74632;SDS011;63139;52.018;8.552;2022-12-20T08:16:53;10.27;;;5.93;;
74632;SDS011;63139;52.018;8.552;2022-12-20T08:19:22;9.80;;;5.85;;
74632;SDS011;63139;52.018;8.552;2022-12-20T08:21:57;9.00;;;5.60;;
74632;SDS011;63139;52.018;8.552;2022-12-20T08:24:25;12.95;;;7.63;;
74632;SDS011;63139;52.018;8.552;2022-12-20T08:26:53;8.93;;;5.80;;
74632;SDS011;63139;52.018;8.552;2022-12-20T08:29:20;10.57;;;5.40;;
74632;SDS011;63139;52.018;8.552;2022-12-20T08:31:48;11.25;;;6.13;;
74632;SDS011;63139;52.018;8.552;2022-12-20T08:34:16;7.38;;;5.22;;
74632;SDS011;63139;52.018;8.552;2022-12-20T08:36:45;9.40;;;5.93;;
74632;SDS011;63139;52.018;8.552;2022-12-20T08:39:13;7.97;;;5.90;;
74632;SDS011;63139;52.018;8.552;2022-12-20T08:41:41;9.13;;;5.03;;
74632;SDS011;63139;52.018;8.552;2022-12-20T08:44:08;6.43;;;4.80;;
74632;SDS011;63139;52.018;8.552;2022-12-20T08:46:36;7.65;;;5.47;;
74632;SDS011;63139;52.018;8.552;2022-12-20T08:49:04;7.90;;;5.00;;
74632;SDS011;63139;52.018;8.552;2022-12-20T08:51:32;8.88;;;5.50;;
74632;SDS011;63139;52.018;8.552;2022-12-20T08:54:01;7.70;;;4.78;;
74632;SDS011;63139;52.018;8.552;2022-12-20T08:56:29;7.65;;;4.82;;
74632;SDS011;63139;52.018;8.552;2022-12-20T08:58:57;7.43;;;5.38;;
74632;SDS011;63139;52.018;8.552;2022-12-20T09:01:25;7.28;;;4.97;;
74632;SDS011;63139;52.018;8.552;2022-12-20T09:03:55;7.28;;;4.28;;
74632;SDS011;63139;52.018;8.552;2022-12-20T09:06:23;8.85;;;4.85;;
74632;SDS011;63139;52.018;8.552;2022-12-20T09:08:51;6.00;;;4.40;;
74632;SDS011;63139;52.018;8.552;2022-12-20T09:11:22;7.13;;;4.90;;
74632;SDS011;63139;52.018;8.552;2022-12-20T09:13:53;10.20;;;4.93;;
74632;SDS011;63139;52.018;8.552;2022-12-20T09:16:24;7.47;;;4.75;;
74632;SDS011;63139;52.018;8.552;2022-12-20T09:18:53;7.68;;;4.45;;
74632;SDS011;63139;52.018;8.552;2022-12-20T09:21:30;6.35;;;4.68;;
74632;SDS011;63139;52.018;8.552;2022-12-20T09:23:58;8.18;;;5.10;;
74632;SDS011;63139;52.018;8.552;2022-12-20T09:26:27;5.80;;;4.68;;
74632;SDS011;63139;52.018;8.552;2022-12-20T09:28:55;8.35;;;4.95;;
74632;SDS011;63139;52.018;8.552;2022-12-20T09:31:24;7.78;;;5.28;;
74632;SDS011;63139;52.018;8.552;2022-12-20T09:33:53;9.20;;;5.35;;
74632;SDS011;63139;52.018;8.552;2022-12-20T09:36:24;9.35;;;4.70;;
74632;SDS011;63139;52.018;8.552;2022-12-20T09:38:53;7.75;;;5.07;;
74632;SDS011;63139;52.018;8.552;2022-12-20T09:41:24;8.13;;;4.88;;
74632;SDS011;63139;52.018;8.552;2022-12-20T09:43:57;7.57;;;4.97;;
74632;SDS011;63139;52.018;8.552;2022-12-20T09:46:30;9.77;;;4.95;;
74632;SDS011;63139;52.018;8.552;2022-12-20T09:48:58;6.80;;;4.55;;
74632;SDS011;63139;52.018;8.552;2022-12-20T09:51:29;5.53;;;4.13;;
74632;SDS011;63139;52.018;8.552;2022-12-20T09:54:12;6.28;;;4.15;;
74632;SDS011;63139;52.018;8.552;2022-12-20T09:56:50;6.13;;;4.30;;
74632;SDS011;63139;52.018;8.552;2022-12-20T09:59:24;5.50;;;4.45;;
74632;SDS011;63139;52.018;8.552;2022-12-20T10:01:52;6.50;;;4.55;;
74632;SDS011;63139;52.018;8.552;2022-12-20T10:04:21;5.65;;;4.20;;
74632;SDS011;63139;52.018;8.552;2022-12-20T10:06:54;6.00;;;4.20;;
74632;SDS011;63139;52.018;8.552;2022-12-20T10:09:55;5.75;;;4.20;;
74632;SDS011;63139;52.018;8.552;2022-12-20T10:12:36;5.82;;;4.22;;
74632;SDS011;63139;52.018;8.552;2022-12-20T10:15:17;6.68;;;4.40;;
74632;SDS011;63139;52.018;8.552;2022-12-20T10:17:57;6.60;;;3.97;;
74632;SDS011;63139;52.018;8.552;2022-12-20T10:20:38;5.85;;;4.25;;
74632;SDS011;63139;52.018;8.552;2022-12-20T10:23:14;7.40;;;4.43;;
74632;SDS011;63139;52.018;8.552;2022-12-20T10:25:57;4.53;;;3.63;;
74632;SDS011;63139;52.018;8.552;2022-12-20T10:28:26;6.75;;;3.65;;
74632;SDS011;63139;52.018;8.552;2022-12-20T10:30:58;4.97;;;4.18;;
74632;SDS011;63139;52.018;8.552;2022-12-20T10:33:29;6.53;;;4.47;;
74632;SDS011;63139;52.018;8.552;2022-12-20T10:38:44;6.30;;;4.35;;
74632;SDS011;63139;52.018;8.552;2022-12-20T10:41:15;6.07;;;4.68;;
74632;SDS011;63139;52.018;8.552;2022-12-20T10:43:49;8.98;;;4.85;;
74632;SDS011;63139;52.018;8.552;2022-12-20T10:46:22;8.63;;;4.85;;
74632;SDS011;63139;52.018;8.552;2022-12-20T10:49:19;7.75;;;4.47;;
74632;SDS011;63139;52.018;8.552;2022-12-20T10:51:59;5.15;;;4.18;;
74632;SDS011;63139;52.018;8.552;2022-12-20T10:54:29;6.53;;;4.85;;
74632;SDS011;63139;52.018;8.552;2022-12-20T10:57:00;7.13;;;4.97;;
74632;SDS011;63139;52.018;8.552;2022-12-20T10:59:41;8.35;;;5.10;;
74632;SDS011;63139;52.018;8.552;2022-12-20T11:02:22;5.95;;;4.43;;
74632;SDS011;63139;52.018;8.552;2022-12-20T11:05:15;4.90;;;4.13;;
74632;SDS011;63139;52.018;8.552;2022-12-20T11:07:52;7.88;;;5.03;;
74632;SDS011;63139;52.018;8.552;2022-12-20T11:10:42;9.35;;;5.03;;
74632;SDS011;63139;52.018;8.552;2022-12-20T11:13:18;8.00;;;4.70;;
74632;SDS011;63139;52.018;8.552;2022-12-20T11:15:48;6.40;;;4.50;;
74632;SDS011;63139;52.018;8.552;2022-12-20T11:18:22;10.45;;;6.45;;
74632;SDS011;63139;52.018;8.552;2022-12-20T11:20:59;6.28;;;4.47;;
74632;SDS011;63139;52.018;8.552;2022-12-20T11:23:43;8.70;;;5.32;;
74632;SDS011;63139;52.018;8.552;2022-12-20T11:26:19;6.32;;;4.35;;
74632;SDS011;63139;52.018;8.552;2022-12-20T11:29:02;6.43;;;4.30;;
74632;SDS011;63139;52.018;8.552;2022-12-20T11:31:47;6.22;;;4.43;;
74632;SDS011;63139;52.018;8.552;2022-12-20T11:34:24;6.35;;;4.68;;
74632;SDS011;63139;52.018;8.552;2022-12-20T11:37:08;7.40;;;4.85;;
74632;SDS011;63139;52.018;8.552;2022-12-20T11:39:49;6.97;;;4.88;;
74632;SDS011;63139;52.018;8.552;2022-12-20T11:42:43;5.40;;;4.18;;
74632;SDS011;63139;52.018;8.552;2022-12-20T11:45:21;7.90;;;4.88;;
74632;SDS011;63139;52.018;8.552;2022-12-20T11:51:05;8.57;;;4.60;;
74632;SDS011;63139;52.018;8.552;2022-12-20T11:53:53;11.70;;;5.55;;
74632;SDS011;63139;52.018;8.552;2022-12-20T11:56:29;8.90;;;4.13;;
74632;SDS011;63139;52.018;8.552;2022-12-20T11:59:10;8.88;;;4.65;;
74632;SDS011;63139;52.018;8.552;2022-12-20T12:01:45;8.80;;;4.45;;
74632;SDS011;63139;52.018;8.552;2022-12-20T12:04:19;6.85;;;4.35;;
74632;SDS011;63139;52.018;8.552;2022-12-20T12:06:50;8.38;;;4.20;;
74632;SDS011;63139;52.018;8.552;2022-12-20T12:09:26;7.17;;;4.17;;
74632;SDS011;63139;52.018;8.552;2022-12-20T12:11:59;6.72;;;4.35;;
74632;SDS011;63139;52.018;8.552;2022-12-20T12:14:37;5.97;;;4.30;;
74632;SDS011;63139;52.018;8.552;2022-12-20T12:17:15;7.88;;;4.38;;
74632;SDS011;63139;52.018;8.552;2022-12-20T12:19:48;5.88;;;3.80;;
74632;SDS011;63139;52.018;8.552;2022-12-20T12:22:21;9.60;;;3.90;;
74632;SDS011;63139;52.018;8.552;2022-12-20T12:24:54;8.20;;;4.05;;
74632;SDS011;63139;52.018;8.552;2022-12-20T12:27:26;6.63;;;3.88;;
74632;SDS011;63139;52.018;8.552;2022-12-20T12:29:55;5.43;;;3.80;;
74632;SDS011;63139;52.018;8.552;2022-12-20T12:32:26;4.78;;;3.40;;
74632;SDS011;63139;52.018;8.552;2022-12-20T12:35:02;6.35;;;4.05;;
74632;SDS011;63139;52.018;8.552;2022-12-20T12:37:50;4.47;;;3.63;;
74632;SDS011;63139;52.018;8.552;2022-12-20T12:40:26;6.40;;;3.60;;
74632;SDS011;63139;52.018;8.552;2022-12-20T12:43:31;4.75;;;3.50;;
74632;SDS011;63139;52.018;8.552;2022-12-20T12:46:11;6.25;;;3.53;;
74632;SDS011;63139;52.018;8.552;2022-12-20T12:48:42;4.40;;;3.30;;
74632;SDS011;63139;52.018;8.552;2022-12-20T12:51:18;5.38;;;3.30;;
74632;SDS011;63139;52.018;8.552;2022-12-20T12:53:52;5.00;;;3.53;;
74632;SDS011;63139;52.018;8.552;2022-12-20T12:56:29;4.13;;;2.90;;
74632;SDS011;63139;52.018;8.552;2022-12-20T12:59:21;6.07;;;3.17;;
74632;SDS011;63139;52.018;8.552;2022-12-20T13:04:52;5.10;;;3.10;;
74632;SDS011;63139;52.018;8.552;2022-12-20T13:07:25;3.67;;;2.83;;
74632;SDS011;63139;52.018;8.552;2022-12-20T13:09:55;5.22;;;3.03;;
74632;SDS011;63139;52.018;8.552;2022-12-20T13:18:21;5.20;;;2.90;;
74632;SDS011;63139;52.018;8.552;2022-12-20T13:27:23;10.43;;;5.97;;
74632;SDS011;63139;52.018;8.552;2022-12-20T13:39:00;4.68;;;2.67;;
74632;SDS011;63139;52.018;8.552;2022-12-20T13:41:35;6.20;;;3.00;;
74632;SDS011;63139;52.018;8.552;2022-12-20T13:44:17;2.60;;;2.20;;
74632;SDS011;63139;52.018;8.552;2022-12-20T13:47:11;4.82;;;2.25;;
74632;SDS011;63139;52.018;8.552;2022-12-20T13:49:58;4.20;;;2.60;;
74632;SDS011;63139;52.018;8.552;2022-12-20T13:52:28;3.13;;;2.42;;
74632;SDS011;63139;52.018;8.552;2022-12-20T13:54:58;3.83;;;2.88;;
74632;SDS011;63139;52.018;8.552;2022-12-20T13:57:29;4.10;;;2.60;;
74632;SDS011;63139;52.018;8.552;2022-12-20T14:00:02;4.65;;;2.70;;
74632;SDS011;63139;52.018;8.552;2022-12-20T14:02:34;4.95;;;2.45;;
74632;SDS011;63139;52.018;8.552;2022-12-20T14:05:13;3.97;;;2.30;;
74632;SDS011;63139;52.018;8.552;2022-12-20T14:07:44;3.53;;;2.22;;
74632;SDS011;63139;52.018;8.552;2022-12-20T14:10:18;3.35;;;2.45;;
74632;SDS011;63139;52.018;8.552;2022-12-20T14:12:49;3.47;;;2.40;;
74632;SDS011;63139;52.018;8.552;2022-12-20T14:15:22;3.05;;;2.20;;
74632;SDS011;63139;52.018;8.552;2022-12-20T14:17:51;3.90;;;2.28;;
74632;SDS011;63139;52.018;8.552;2022-12-20T14:20:21;3.22;;;2.20;;
74632;SDS011;63139;52.018;8.552;2022-12-20T14:22:53;2.97;;;2.20;;
74632;SDS011;63139;52.018;8.552;2022-12-20T14:25:32;2.88;;;2.00;;
74632;SDS011;63139;52.018;8.552;2022-12-20T14:28:04;3.35;;;2.00;;
74632;SDS011;63139;52.018;8.552;2022-12-20T14:30:51;4.57;;;1.95;;
74632;SDS011;63139;52.018;8.552;2022-12-20T14:33:19;3.22;;;2.17;;
74632;SDS011;63139;52.018;8.552;2022-12-20T14:35:55;2.90;;;2.10;;
74632;SDS011;63139;52.018;8.552;2022-12-20T14:38:23;4.53;;;2.03;;
74632;SDS011;63139;52.018;8.552;2022-12-20T14:40:55;3.60;;;2.25;;
74632;SDS011;63139;52.018;8.552;2022-12-20T14:43:25;4.03;;;2.20;;
74632;SDS011;63139;52.018;8.552;2022-12-20T14:46:16;2.50;;;1.92;;
74632;SDS011;63139;52.018;8.552;2022-12-20T14:48:47;2.45;;;2.10;;
74632;SDS011;63139;52.018;8.552;2022-12-20T14:51:18;2.33;;;1.95;;
74632;SDS011;63139;52.018;8.552;2022-12-20T14:53:47;2.45;;;2.17;;
74632;SDS011;63139;52.018;8.552;2022-12-20T14:56:19;3.13;;;2.00;;
74632;SDS011;63139;52.018;8.552;2022-12-20T14:59:00;4.07;;;2.47;;
74632;SDS011;63139;52.018;8.552;2022-12-20T15:01:33;2.95;;;2.17;;
74632;SDS011;63139;52.018;8.552;2022-12-20T15:04:18;5.13;;;2.40;;
74632;SDS011;63139;52.018;8.552;2022-12-20T15:06:48;3.53;;;2.58;;
74632;SDS011;63139;52.018;8.552;2022-12-20T15:09:18;3.17;;;2.15;;
74632;SDS011;63139;52.018;8.552;2022-12-20T15:11:46;4.07;;;2.35;;
74632;SDS011;63139;52.018;8.552;2022-12-20T15:14:30;4.78;;;2.67;;
74632;SDS011;63139;52.018;8.552;2022-12-20T15:17:04;8.73;;;2.85;;
74632;SDS011;63139;52.018;8.552;2022-12-20T15:19:36;6.10;;;2.88;;
74632;SDS011;63139;52.018;8.552;2022-12-20T15:22:09;6.55;;;2.95;;
74632;SDS011;63139;52.018;8.552;2022-12-20T15:24:41;6.82;;;3.40;;
74632;SDS011;63139;52.018;8.552;2022-12-20T15:27:11;5.35;;;3.22;;
74632;SDS011;63139;52.018;8.552;2022-12-20T15:29:39;5.18;;;2.97;;
74632;SDS011;63139;52.018;8.552;2022-12-20T15:32:13;5.72;;;3.40;;
74632;SDS011;63139;52.018;8.552;2022-12-20T15:34:47;4.63;;;3.00;;
74632;SDS011;63139;52.018;8.552;2022-12-20T15:37:15;5.18;;;3.33;;
74632;SDS011;63139;52.018;8.552;2022-12-20T15:39:44;5.28;;;2.95;;
74632;SDS011;63139;52.018;8.552;2022-12-20T15:42:12;8.30;;;4.57;;
74632;SDS011;63139;52.018;8.552;2022-12-20T15:44:44;10.43;;;4.00;;
74632;SDS011;63139;52.018;8.552;2022-12-20T15:47:14;6.75;;;3.53;;
74632;SDS011;63139;52.018;8.552;2022-12-20T15:49:43;5.93;;;3.65;;
74632;SDS011;63139;52.018;8.552;2022-12-20T15:52:17;4.72;;;3.05;;
74632;SDS011;63139;52.018;8.552;2022-12-20T15:54:47;7.03;;;4.18;;
74632;SDS011;63139;52.018;8.552;2022-12-20T15:57:15;5.25;;;3.10;;
74632;SDS011;63139;52.018;8.552;2022-12-20T15:59:43;7.70;;;3.67;;
74632;SDS011;63139;52.018;8.552;2022-12-20T16:02:38;5.60;;;3.47;;
74632;SDS011;63139;52.018;8.552;2022-12-20T16:05:07;5.95;;;3.80;;
74632;SDS011;63139;52.018;8.552;2022-12-20T16:07:38;4.53;;;3.40;;
74632;SDS011;63139;52.018;8.552;2022-12-20T16:10:08;6.15;;;3.85;;